Time;durP1;ratioP1;P1;durP2;ratioP2;P2;SDS_P1;SDS_P2;PMS_P1;PMS_P2;Temp;Humidity;BMP_temperature;BMP_pressure;BME280_temperature;BME280_humidity;BME280_pressure;Samples;Min_cycle;Max_cycle;Signal;HPM_P1;HPM_P2
2023/06/10 00:02:20;;;;;;;3.85;1.92;;;;;;;;;;5019889;28;20046;-96
2023/06/10 00:04:49;;;;;;;4.70;2.13;;;;;;;;;;5003737;28;20072;-95
2023/06/10 00:07:33;;;;;;;4.78;2.10;;;;;;;;;;5003918;28;20398;-96
2023/06/10 00:10:05;;;;;;;7.00;2.47;;;;;;;;;;5003039;28;20046;-95
2023/06/10 00:12:52;;;;;;;4.00;2.63;;;;;;;;;;5001888;28;20052;-96
2023/06/10 00:15:26;;;;;;;3.50;2.45;;;;;;;;;;5004024;28;20062;-95
2023/06/10 00:18:09;;;;;;;8.88;2.83;;;;;;;;;;5005735;28;20046;-95
2023/06/10 00:20:42;;;;;;;5.80;3.08;;;;;;;;;;5005402;28;20126;-95
2023/06/10 00:23:21;;;;;;;;;;;;;;;;;;;;;
2023/06/10 00:26:19;;;;;;;5.32;2.42;;;;;;;;;;5019471;28;20060;-96
2023/06/10 00:29:00;;;;;;;;;;;;;;;;;;;;;
2023/06/10 00:31:30;;;;;;;4.20;2.45;;;;;;;;;;5018435;28;20053;-95
2023/06/10 00:34:16;;;;;;;3.65;2.50;;;;;;;;;;5002333;28;20050;-95
2023/06/10 00:36:45;;;;;;;4.15;2.67;;;;;;;;;;5002147;28;20429;-95
2023/06/10 00:39:18;;;;;;;3.45;2.88;;;;;;;;;;5001165;28;20046;-96
2023/06/10 00:41:58;;;;;;;5.05;2.28;;;;;;;;;;5016492;28;20119;-95
2023/06/10 00:44:42;;;;;;;4.80;3.07;;;;;;;;;;5001786;28;20045;-95
2023/06/10 00:47:18;;;;;;;;;;;;;;;;;;;;;
2023/06/10 00:49:48;;;;;;;4.72;2.55;;;;;;;;;;5017476;28;20048;-95
2023/06/10 00:52:30;;;;;;;4.32;2.80;;;;;;;;;;5002626;28;20441;-95
2023/06/10 00:55:07;;;;;;;3.30;2.45;;;;;;;;;;5001661;28;20104;-95
2023/06/10 00:57:39;;;;;;;5.40;2.72;;;;;;;;;;5000540;28;20495;-94
2023/06/10 01:00:22;;;;;;;8.32;2.88;;;;;;;;;;5001179;28;20092;-95
2023/06/10 01:05:41;;;;;;;2.97;2.55;;;;;;;;;;5012804;28;20096;-95
2023/06/10 01:08:24;;;;;;;3.58;2.90;;;;;;;;;;5000124;28;20081;-95
2023/06/10 01:11:02;;;;;;;3.38;2.90;;;;;;;;;;5000507;28;20077;-94
2023/06/10 01:14:10;;;;;;;;;;;;;;;;;;;;;
2023/06/10 01:16:40;;;;;;;3.83;2.88;;;;;;;;;;5016824;28;20066;-95
2023/06/10 01:24:57;;;;;;;6.75;3.22;;;;;;;;;;5017915;28;20116;-95
2023/06/10 01:27:39;;;;;;;3.40;3.10;;;;;;;;;;4999865;28;20478;-95
2023/06/10 01:30:36;;;;;;;3.78;3.47;;;;;;;;;;5000262;28;20133;-95
2023/06/10 01:33:24;;;;;;;5.45;2.75;;;;;;;;;;4963136;28;20054;-95
2023/06/10 01:35:54;;;;;;;3.65;3.35;;;;;;;;;;4962344;28;20058;-96
2023/06/10 01:38:41;;;;;;;;;;;;;;;;;;;;;
2023/06/10 01:44:04;;;;;;;5.68;3.33;;;;;;;;;;5033644;28;20050;-95
2023/06/10 01:46:37;;;;;;;6.80;3.78;;;;;;;;;;5009318;28;20061;-95
2023/06/10 01:49:21;;;;;;;4.80;3.53;;;;;;;;;;5003360;28;20042;-94
2023/06/10 01:51:55;;;;;;;5.20;3.43;;;;;;;;;;5000790;28;20293;-95
2023/06/10 01:54:26;;;;;;;4.18;3.75;;;;;;;;;;4999389;28;20054;-95
2023/06/10 01:57:02;;;;;;;5.32;3.83;;;;;;;;;;4998146;28;20084;-94
2023/06/10 01:59:38;;;;;;;;;;;;;;;;;;;;;
2023/06/10 02:02:10;;;;;;;5.45;4.40;;;;;;;;;;5015621;28;20049;-93
2023/06/10 02:04:39;;;;;;;4.22;3.28;;;;;;;;;;4998925;28;20108;-94
2023/06/10 02:07:08;;;;;;;3.60;3.30;;;;;;;;;;5016378;28;20042;-94
2023/06/10 02:09:58;;;;;;;6.32;3.63;;;;;;;;;;4998805;28;20085;-94
2023/06/10 02:12:29;;;;;;;6.43;4.05;;;;;;;;;;4998635;28;20553;-95
2023/06/10 02:15:06;;;;;;;5.87;3.87;;;;;;;;;;5003167;28;20058;-94
2023/06/10 02:18:00;;;;;;;4.85;3.45;;;;;;;;;;5003162;28;20053;-95
2023/06/10 02:20:31;;;;;;;6.47;4.00;;;;;;;;;;5003599;28;20077;-94
2023/06/10 02:23:04;;;;;;;6.95;4.07;;;;;;;;;;5002735;28;20045;-94
2023/06/10 02:25:37;;;;;;;6.22;4.28;;;;;;;;;;5002808;28;20049;-95
2023/06/10 02:28:12;;;;;;;6.55;4.47;;;;;;;;;;5003481;28;20037;-95
2023/06/10 02:30:43;;;;;;;4.85;4.45;;;;;;;;;;5003159;28;20054;-94
2023/06/10 02:33:12;;;;;;;7.80;4.72;;;;;;;;;;5018790;28;20054;-94
2023/06/10 02:36:01;;;;;;;6.47;4.25;;;;;;;;;;5002887;28;20057;-93
2023/06/10 02:38:40;;;;;;;5.80;4.35;;;;;;;;;;5002860;28;20052;-94
2023/06/10 02:41:08;;;;;;;5.07;4.13;;;;;;;;;;5002927;28;20054;-94
2023/06/10 02:43:44;;;;;;;6.55;4.65;;;;;;;;;;5003325;28;20076;-93
2023/06/10 02:46:11;;;;;;;6.65;4.35;;;;;;;;;;5002668;28;20061;-95
2023/06/10 02:48:56;;;;;;;;;;;;;;;;;;;;;
2023/06/10 02:51:28;;;;;;;6.32;4.57;;;;;;;;;;5019242;28;20088;-94
2023/06/10 02:56:47;;;;;;;5.88;5.18;;;;;;;;;;5018557;28;20201;-93
2023/06/10 02:59:29;;;;;;;;;;;;;;;;;;;;;
2023/06/10 03:02:05;;;;;;;8.05;5.20;;;;;;;;;;5004414;28;20050;-94
2023/06/10 03:04:37;;;;;;;9.02;5.65;;;;;;;;;;5001813;28;20058;-92
2023/06/10 03:10:10;;;;;;;8.05;5.47;;;;;;;;;;5004550;28;20371;-93
2023/06/10 03:13:07;;;;;;;7.93;5.28;;;;;;;;;;5001559;28;20096;-92
2023/06/10 03:15:33;;;;;;;7.35;5.55;;;;;;;;;;5000256;28;20058;-93
2023/06/10 03:18:00;;;;;;;6.97;5.70;;;;;;;;;;5000836;28;20081;-93
2023/06/10 03:20:31;;;;;;;6.93;5.65;;;;;;;;;;5001178;28;20498;-93
2023/06/10 03:23:17;;;;;;;;;;;;;;;;;;;;;
2023/06/10 03:25:46;;;;;;;9.13;5.25;;;;;;;;;;5016230;28;20050;-93
2023/06/10 03:28:27;;;;;;;5.57;5.07;;;;;;;;;;5000956;28;20056;-93
2023/06/10 03:30:54;;;;;;;7.03;4.72;;;;;;;;;;5000047;28;20442;-93
2023/06/10 03:33:26;;;;;;;6.40;5.05;;;;;;;;;;4999269;28;20053;-92
2023/06/10 03:35:52;;;;;;;6.55;4.90;;;;;;;;;;5016391;28;20046;-92
2023/06/10 03:38:18;;;;;;;5.93;5.38;;;;;;;;;;5000285;28;20050;-92
2023/06/10 03:40:44;;;;;;;10.35;5.28;;;;;;;;;;5000136;28;20053;-93
2023/06/10 03:43:13;;;;;;;6.50;5.03;;;;;;;;;;5000146;28;20058;-93
2023/06/10 03:45:45;;;;;;;5.43;4.57;;;;;;;;;;4999816;28;20042;-92
2023/06/10 03:48:21;;;;;;;8.00;4.80;;;;;;;;;;5016656;28;20060;-92
2023/06/10 03:51:05;;;;;;;;;;;;;;;;;;;;;
2023/06/10 03:53:34;;;;;;;5.70;4.85;;;;;;;;;;5017428;28;20046;-91
2023/06/10 03:56:08;;;;;;;5.22;4.32;;;;;;;;;;4999087;28;20136;-91
2023/06/10 03:58:41;;;;;;;7.50;4.53;;;;;;;;;;4999639;28;20104;-92
2023/06/10 04:01:07;;;;;;;6.80;5.10;;;;;;;;;;5016139;28;20058;-92
2023/06/10 04:03:43;;;;;;;6.65;4.72;;;;;;;;;;4999412;28;20046;-93
2023/06/10 04:06:12;;;;;;;7.00;4.72;;;;;;;;;;4983946;28;20107;-92
2023/06/10 04:08:41;;;;;;;6.65;4.18;;;;;;;;;;4998855;28;20042;-92
2023/06/10 04:11:10;;;;;;;6.13;4.60;;;;;;;;;;4983463;28;20056;-92
2023/06/10 04:13:38;;;;;;;6.63;4.28;;;;;;;;;;4999642;28;20049;-91
2023/06/10 04:16:07;;;;;;;7.57;4.28;;;;;;;;;;4999153;28;20093;-92
2023/06/10 04:18:51;;;;;;;7.68;4.57;;;;;;;;;;4998769;28;20042;-92
2023/06/10 04:21:17;;;;;;;6.70;3.10;;;;;;;;;;5014555;28;20067;-87
2023/06/10 04:23:43;;;;;;;4.55;4.18;;;;;;;;;;5014438;28;20065;-87
2023/06/10 04:26:11;;;;;;;4.18;3.58;;;;;;;;;;5013498;28;20037;-87
2023/06/10 04:28:38;;;;;;;4.57;3.97;;;;;;;;;;4998111;28;20052;-86
2023/06/10 04:31:06;;;;;;;3.83;3.42;;;;;;;;;;4997599;28;20083;-87
2023/06/10 04:33:32;;;;;;;6.25;4.30;;;;;;;;;;4997623;28;20116;-86
2023/06/10 04:35:58;;;;;;;4.80;3.58;;;;;;;;;;5014218;28;20041;-86
2023/06/10 04:38:25;;;;;;;5.45;3.80;;;;;;;;;;4997755;28;20479;-87
2023/06/10 04:40:53;;;;;;;7.45;4.20;;;;;;;;;;5013696;28;20057;-87
2023/06/10 04:43:19;;;;;;;5.82;3.88;;;;;;;;;;5013705;28;20483;-86
2023/06/10 04:45:45;;;;;;;6.03;4.10;;;;;;;;;;5013681;28;20578;-87
2023/06/10 04:48:12;;;;;;;4.53;3.88;;;;;;;;;;4982248;28;20058;-87
2023/06/10 04:50:38;;;;;;;7.40;4.13;;;;;;;;;;5013515;28;20046;-87
2023/06/10 04:53:08;;;;;;;5.55;3.75;;;;;;;;;;5013741;28;20498;-86
2023/06/10 04:55:34;;;;;;;4.50;3.20;;;;;;;;;;5012249;28;20080;-87
2023/06/10 04:58:03;;;;;;;4.78;3.63;;;;;;;;;;4997324;28;20103;-87
2023/06/10 05:00:31;;;;;;;6.40;3.88;;;;;;;;;;5013573;28;20053;-86
2023/06/10 05:02:57;;;;;;;6.65;3.50;;;;;;;;;;4997338;28;20104;-85
2023/06/10 05:05:23;;;;;;;4.82;3.28;;;;;;;;;;4997615;28;20050;-86
2023/06/10 05:07:52;;;;;;;7.13;3.70;;;;;;;;;;4997328;28;20061;-86
2023/06/10 05:10:18;;;;;;;5.40;3.83;;;;;;;;;;4997265;28;20085;-86
2023/06/10 05:12:44;;;;;;;4.90;3.05;;;;;;;;;;5013153;28;20132;-87
2023/06/10 05:15:10;;;;;;;6.60;3.50;;;;;;;;;;5012955;28;20482;-86
2023/06/10 05:17:36;;;;;;;6.18;3.70;;;;;;;;;;5013502;28;20148;-86
2023/06/10 05:20:03;;;;;;;6.32;3.92;;;;;;;;;;5013334;28;20061;-87
2023/06/10 05:22:29;;;;;;;6.05;4.10;;;;;;;;;;4997057;28;20045;-87
2023/06/10 05:24:58;;;;;;;6.82;3.47;;;;;;;;;;5013121;28;20046;-87
2023/06/10 05:27:25;;;;;;;6.43;4.00;;;;;;;;;;5013094;28;20426;-86
2023/06/10 05:29:52;;;;;;;6.47;4.22;;;;;;;;;;4996580;28;20049;-85
2023/06/10 05:32:18;;;;;;;5.13;3.30;;;;;;;;;;5013804;28;20080;-89
2023/06/10 05:34:45;;;;;;;5.93;4.40;;;;;;;;;;4997257;28;20497;-91
2023/06/10 05:37:11;;;;;;;5.68;4.10;;;;;;;;;;5013595;28;20560;-90
2023/06/10 05:39:37;;;;;;;7.90;3.97;;;;;;;;;;4997256;28;20050;-89
2023/06/10 05:42:07;;;;;;;6.93;3.92;;;;;;;;;;4981657;28;20453;-90
2023/06/10 05:44:33;;;;;;;6.28;4.13;;;;;;;;;;5011917;28;20046;-89
2023/06/10 05:46:59;;;;;;;5.97;3.60;;;;;;;;;;4996200;28;20045;-89
2023/06/10 05:49:28;;;;;;;6.47;4.20;;;;;;;;;;4996116;28;20503;-89
2023/06/10 05:51:58;;;;;;;8.07;4.15;;;;;;;;;;5012963;28;20050;-90
2023/06/10 05:54:28;;;;;;;6.10;3.80;;;;;;;;;;4982009;28;20100;-89
2023/06/10 05:56:54;;;;;;;7.80;4.13;;;;;;;;;;4996380;28;20052;-89
2023/06/10 05:59:22;;;;;;;9.25;3.85;;;;;;;;;;4980888;28;20057;-89
2023/06/10 06:01:49;;;;;;;6.75;4.05;;;;;;;;;;4996776;28;20045;-90
2023/06/10 06:04:16;;;;;;;4.35;3.65;;;;;;;;;;4996915;28;20103;-90
2023/06/10 06:07:10;;;;;;;5.72;3.88;;;;;;;;;;5021892;28;20051;-89
2023/06/10 06:09:41;;;;;;;9.00;3.90;;;;;;;;;;5016480;28;20128;-91
2023/06/10 06:12:07;;;;;;;5.35;3.95;;;;;;;;;;5032852;28;20045;-88
2023/06/10 06:14:37;;;;;;;5.43;3.80;;;;;;;;;;5016325;28;20049;-86
2023/06/10 06:17:04;;;;;;;6.28;3.92;;;;;;;;;;5015039;28;20099;-89
2023/06/10 06:19:30;;;;;;;6.13;3.60;;;;;;;;;;5032659;28;20060;-89
2023/06/10 06:21:56;;;;;;;6.90;3.95;;;;;;;;;;5015559;28;20045;-88
2023/06/10 06:24:25;;;;;;;5.85;3.47;;;;;;;;;;5032430;28;20060;-87
2023/06/10 06:26:51;;;;;;;6.45;3.33;;;;;;;;;;4999570;28;20053;-90
2023/06/10 06:29:19;;;;;;;6.30;3.75;;;;;;;;;;5016221;28;20049;-88
2023/06/10 06:31:48;;;;;;;5.45;3.53;;;;;;;;;;5017583;28;20045;-90
2023/06/10 06:34:14;;;;;;;6.20;3.88;;;;;;;;;;5018118;28;20137;-89
2023/06/10 06:36:40;;;;;;;5.88;3.40;;;;;;;;;;5034859;28;20045;-87
2023/06/10 06:39:06;;;;;;;6.53;3.25;;;;;;;;;;5038526;28;20054;-89
2023/06/10 06:41:33;;;;;;;6.18;3.60;;;;;;;;;;5030071;28;20072;-89
2023/06/10 06:44:02;;;;;;;4.32;3.15;;;;;;;;;;5021780;28;20555;-87
2023/06/10 06:46:31;;;;;;;5.10;3.20;;;;;;;;;;5032086;28;20156;-88
2023/06/10 06:48:57;;;;;;;7.65;3.30;;;;;;;;;;4999684;28;20440;-89
2023/06/10 06:51:26;;;;;;;6.25;2.90;;;;;;;;;;5016220;28;20045;-89
2023/06/10 06:53:58;;;;;;;7.50;3.30;;;;;;;;;;5016117;28;20052;-88
2023/06/10 06:56:28;;;;;;;5.90;2.65;;;;;;;;;;4999682;28;20064;-88
2023/06/10 06:58:54;;;;;;;4.50;2.85;;;;;;;;;;5033146;28;20481;-88
2023/06/10 07:01:23;;;;;;;6.40;3.50;;;;;;;;;;5019295;28;20053;-87
2023/06/10 07:03:49;;;;;;;6.20;3.10;;;;;;;;;;5019188;28;20049;-88
2023/06/10 07:06:15;;;;;;;6.45;3.45;;;;;;;;;;5019647;28;20421;-88
2023/06/10 07:08:43;;;;;;;6.22;3.50;;;;;;;;;;5019272;28;20132;-88
2023/06/10 07:11:09;;;;;;;4.20;3.20;;;;;;;;;;5019467;28;20045;-89
2023/06/10 07:13:38;;;;;;;5.90;3.67;;;;;;;;;;5003189;28;20493;-88
2023/06/10 07:16:04;;;;;;;7.63;3.30;;;;;;;;;;5019222;28;20060;-88
2023/06/10 07:18:30;;;;;;;4.60;2.90;;;;;;;;;;5019260;28;20527;-91
2023/06/10 07:20:56;;;;;;;5.90;3.20;;;;;;;;;;5035594;28;20124;-89
2023/06/10 07:23:23;;;;;;;7.35;3.85;;;;;;;;;;5019391;28;20416;-90
2023/06/10 07:25:49;;;;;;;3.15;2.85;;;;;;;;;;5034929;28;20041;-89
2023/06/10 07:28:15;;;;;;;6.45;2.97;;;;;;;;;;5018971;28;20057;-89
2023/06/10 07:30:41;;;;;;;6.95;3.20;;;;;;;;;;5018919;28;20132;-90
2023/06/10 07:33:07;;;;;;;5.78;2.80;;;;;;;;;;5019251;28;20556;-89
2023/06/10 07:35:34;;;;;;;4.65;2.40;;;;;;;;;;5018944;28;20100;-89
2023/06/10 07:38:03;;;;;;;3.17;2.65;;;;;;;;;;5035473;28;20087;-90
2023/06/10 07:40:31;;;;;;;5.60;3.13;;;;;;;;;;5002704;28;20046;-89
2023/06/10 07:42:58;;;;;;;4.57;2.50;;;;;;;;;;5035326;28;20049;-89
2023/06/10 07:45:26;;;;;;;6.22;2.88;;;;;;;;;;5019051;28;20049;-89
2023/06/10 07:47:54;;;;;;;4.97;2.95;;;;;;;;;;5035145;28;20060;-89
2023/06/10 07:50:21;;;;;;;5.60;2.75;;;;;;;;;;5018253;28;20088;-90
2023/06/10 07:52:47;;;;;;;6.38;2.70;;;;;;;;;;5018617;28;20041;-89
2023/06/10 07:55:15;;;;;;;4.13;2.70;;;;;;;;;;5035349;28;20041;-90
2023/06/10 07:57:41;;;;;;;6.85;2.78;;;;;;;;;;5034644;28;20053;-89
2023/06/10 08:00:08;;;;;;;4.38;2.17;;;;;;;;;;5018463;28;20053;-90
2023/06/10 08:02:34;;;;;;;3.35;2.10;;;;;;;;;;5018896;28;20063;-88
2023/06/10 08:05:03;;;;;;;2.80;2.47;;;;;;;;;;5018342;28;20064;-88
2023/06/10 08:07:31;;;;;;;4.50;2.50;;;;;;;;;;5018055;28;20054;-90
2023/06/10 08:10:00;;;;;;;4.15;2.28;;;;;;;;;;5018049;28;20520;-89
2023/06/10 08:12:26;;;;;;;3.33;2.33;;;;;;;;;;5017761;28;20067;-90
2023/06/10 08:14:55;;;;;;;4.45;2.78;;;;;;;;;;5017506;28;20045;-90
2023/06/10 08:17:24;;;;;;;6.43;2.40;;;;;;;;;;5034357;28;20053;-89
2023/06/10 08:19:58;;;;;;;5.40;2.83;;;;;;;;;;5034750;28;20081;-89
2023/06/10 08:22:28;;;;;;;;;;;;;;;;;;5018625;28;20081;-89
2023/06/10 08:24:57;;;;;;;4.13;2.45;;;;;;;;;;5034443;28;19921;-90
2023/06/10 08:27:28;;;;;;;3.85;2.25;;;;;;;;;;5017490;28;20132;-89
2023/06/10 08:29:54;;;;;;;4.20;3.00;;;;;;;;;;5017836;28;20046;-90
2023/06/10 08:32:23;;;;;;;4.13;2.78;;;;;;;;;;5017996;28;20075;-89
2023/06/10 08:34:51;;;;;;;7.75;3.80;;;;;;;;;;5018002;28;20095;-89
2023/06/10 08:37:30;;;;;;;;;;;;;;;;;;;;;
2023/06/10 08:39:59;;;;;;;5.30;2.50;;;;;;;;;;5033871;28;20045;-90
2023/06/10 08:42:50;;;;;;;;;;;;;;;;;;;;;
2023/06/10 08:45:35;;;;;;;4.28;2.63;;;;;;;;;;5033764;28;20041;-89
2023/06/10 08:48:09;;;;;;;4.57;2.95;;;;;;;;;;5016753;28;20049;-91
2023/06/10 08:50:43;;;;;;;6.72;3.05;;;;;;;;;;5017510;28;20133;-90
2023/06/10 08:53:20;;;;;;;5.63;2.95;;;;;;;;;;5019037;28;20567;-90
2023/06/10 08:55:53;;;;;;;5.43;3.20;;;;;;;;;;5001302;28;20060;-90
2023/06/10 08:58:22;;;;;;;4.35;3.47;;;;;;;;;;5018268;28;20477;-90
2023/06/10 09:00:49;;;;;;;5.55;3.60;;;;;;;;;;5017487;28;20080;-89
2023/06/10 09:03:25;;;;;;;;;;;;;;;;;;;;;
2023/06/10 09:06:02;;;;;;;;;;;;;;;;;;;;;
2023/06/10 09:08:40;;;;;;;3.88;3.55;;;;;;;;;;5034006;28;20120;-90
2023/06/10 09:11:16;;;;;;;;;;;;;;;;;;;;;
2023/06/10 09:13:56;;;;;;;;;;;;;;;;;;;;;
2023/06/10 09:16:50;;;;;;;4.07;2.85;;;;;;;;;;5033713;28;20053;-92
2023/06/10 09:19:16;;;;;;;4.60;3.03;;;;;;;;;;5039211;28;20053;-91
2023/06/10 09:21:47;;;;;;;3.78;3.35;;;;;;;;;;5018906;28;20140;-91
2023/06/10 09:24:29;;;;;;;;;;;;;;;;;;;;;
2023/06/10 09:27:06;;;;;;;6.07;4.30;;;;;;;;;;5035186;28;20052;-91
2023/06/10 09:29:54;;;;;;;5.60;3.65;;;;;;;;;;5018133;28;20046;-92
2023/06/10 09:32:30;;;;;;;4.47;3.45;;;;;;;;;;5016717;28;20117;-91
2023/06/10 09:34:57;;;;;;;4.38;2.80;;;;;;;;;;5018043;28;20056;-89
2023/06/10 09:37:39;;;;;;;4.22;3.28;;;;;;;;;;5017740;28;20053;-91
2023/06/10 09:40:26;;;;;;;;;;;;;;;;;;;;;
2023/06/10 09:42:59;;;;;;;3.08;2.58;;;;;;;;;;5019912;28;20544;-91
2023/06/10 09:45:43;;;;;;;;;;;;;;;;;;;;;
2023/06/10 09:48:17;;;;;;;3.78;3.47;;;;;;;;;;5035016;28;20042;-92
2023/06/10 09:50:51;;;;;;;3.22;2.97;;;;;;;;;;5035494;28;20049;-92
2023/06/10 09:53:30;;;;;;;4.07;3.50;;;;;;;;;;5003220;28;20096;-91
2023/06/10 09:58:51;;;;;;;3.78;3.47;;;;;;;;;;5020830;28;20513;-94
2023/06/10 10:01:25;;;;;;;4.10;3.80;;;;;;;;;;5018026;28;20046;-93
2023/06/10 10:06:48;;;;;;;4.80;3.90;;;;;;;;;;5017121;28;20128;-93
2023/06/10 10:09:54;;;;;;;;;;;;;;;;;;5031787;28;20052;-94
2023/06/10 10:12:20;;;;;;;3.83;3.15;;;;;;;;;;5033230;28;19943;-92
2023/06/10 10:15:03;;;;;;;3.00;2.78;;;;;;;;;;5016354;28;20084;-92
2023/06/10 10:17:30;;;;;;;5.30;2.75;;;;;;;;;;5033535;28;20132;-93
2023/06/10 10:20:11;;;;;;;4.28;3.22;;;;;;;;;;5016303;28;20053;-92
2023/06/10 10:22:41;;;;;;;3.10;2.90;;;;;;;;;;5017407;28;20383;-93
2023/06/10 10:25:40;;;;;;;;;;;;;;;;;;;;;
2023/06/10 10:28:11;;;;;;;3.45;2.40;;;;;;;;;;5034469;28;20048;-92
2023/06/10 10:34:32;;;;;;;;;;;;;;;;;;;;;
2023/06/10 10:37:10;;;;;;;2.90;2.13;;;;;;;;;;4985934;28;20064;-92
2023/06/10 10:39:48;;;;;;;4.05;1.90;;;;;;;;;;5021039;28;20167;-91
2023/06/10 10:43:08;;;;;;;3.55;1.38;;;;;;;;;;5010533;28;20049;-91
2023/06/10 10:45:37;;;;;;;2.10;1.67;;;;;;;;;;5022366;28;20128;-92
2023/06/10 10:51:53;;;;;;;2.20;1.25;;;;;;;;;;4979661;28;20062;-93
2023/06/10 10:58:03;;;;;;;1.77;1.27;;;;;;;;;;4976978;28;20070;-91
2023/06/10 11:00:57;;;;;;;;;;;;;;;;;;;;;
2023/06/10 11:03:31;;;;;;;4.30;1.25;;;;;;;;;;5038312;28;20052;-89
2023/06/10 11:06:00;;;;;;;3.72;1.73;;;;;;;;;;5021080;28;20132;-92
2023/06/10 11:08:53;;;;;;;;;;;;;;;;;;;;;
2023/06/10 11:11:25;;;;;;;1.50;1.40;;;;;;;;;;5037190;28;20041;-92
2023/06/10 11:16:55;;;;;;;2.10;1.27;;;;;;;;;;5036318;28;20437;-94
2023/06/10 11:19:57;;;;;;;2.22;1.25;;;;;;;;;;5020948;28;20042;-95
2023/06/10 11:25:18;;;;;;;2.88;1.15;;;;;;;;;;5020990;28;20072;-93
2023/06/10 11:27:59;;;;;;;1.52;1.40;;;;;;;;;;5038525;28;20045;-92
2023/06/10 11:30:35;;;;;;;2.33;1.38;;;;;;;;;;5021813;28;20092;-92
2023/06/10 11:33:07;;;;;;;2.13;0.90;;;;;;;;;;5023269;28;20508;-92
2023/06/10 11:38:51;;;;;;;2.10;1.10;;;;;;;;;;5054783;28;20136;-92
2023/06/10 11:41:21;;;;;;;2.30;1.40;;;;;;;;;;5021941;28;20382;-92
2023/06/10 11:44:03;;;;;;;2.03;1.38;;;;;;;;;;5039700;28;20116;-92
2023/06/10 11:49:58;;;;;;;2.58;1.40;;;;;;;;;;5017977;28;20042;-91
2023/06/10 11:52:43;;;;;;;2.70;1.42;;;;;;;;;;5019405;28;20091;-91
2023/06/10 11:55:38;;;;;;;1.83;1.27;;;;;;;;;;5019158;28;20402;-88
2023/06/10 11:58:22;;;;;;;;;;;;;;;;;;;;;
2023/06/10 12:01:13;;;;;;;2.78;0.95;;;;;;;;;;5036612;28;20060;-90
2023/06/10 12:03:41;;;;;;;1.20;0.88;;;;;;;;;;5021481;28;20046;-91
2023/06/10 12:12:48;;;;;;;2.03;1.20;;;;;;;;;;5037154;28;20032;-90
2023/06/10 12:15:28;;;;;;;2.85;1.02;;;;;;;;;;5018553;28;20084;-93
2023/06/10 12:17:54;;;;;;;2.97;1.15;;;;;;;;;;5019385;28;20492;-92
2023/06/10 12:21:17;;;;;;;;;;;;;;;;;;;;;
2023/06/10 12:24:05;;;;;;;3.03;1.05;;;;;;;;;;5028485;28;20053;-91
2023/06/10 12:33:27;;;;;;;2.05;0.80;;;;;;;;;;5024970;28;20044;-91
2023/06/10 12:35:59;;;;;;;1.60;0.95;;;;;;;;;;5018251;28;20049;-91
2023/06/10 12:38:28;;;;;;;1.90;0.80;;;;;;;;;;5035828;28;20478;-91
2023/06/10 12:41:12;;;;;;;1.38;0.80;;;;;;;;;;5018331;28;20045;-92
2023/06/10 12:43:40;;;;;;;0.95;0.80;;;;;;;;;;5035351;28;20049;-91
2023/06/10 12:46:19;;;;;;;0.88;0.85;;;;;;;;;;5034266;28;20371;-89
2023/06/10 12:48:54;;;;;;;0.75;0.60;;;;;;;;;;5003270;28;20099;-92
2023/06/10 12:51:20;;;;;;;1.67;0.60;;;;;;;;;;5018442;28;20068;-92
2023/06/10 12:53:52;;;;;;;1.23;0.60;;;;;;;;;;5018676;28;20084;-91
2023/06/10 12:56:18;;;;;;;2.28;0.63;;;;;;;;;;5034408;28;20128;-91
2023/06/10 12:58:53;;;;;;;2.47;0.60;;;;;;;;;;5019095;28;20057;-92
2023/06/10 13:01:45;;;;;;;1.85;0.60;;;;;;;;;;5019042;28;20049;-90
2023/06/10 13:04:13;;;;;;;0.70;0.70;;;;;;;;;;5018217;28;20057;-91
2023/06/10 13:06:41;;;;;;;1.45;0.70;;;;;;;;;;5035634;28;20045;-91
2023/06/10 13:09:17;;;;;;;1.20;0.93;;;;;;;;;;5018021;28;20052;-92
2023/06/10 13:12:20;;;;;;;0.60;0.50;;;;;;;;;;4946479;28;20098;-93
2023/06/10 13:15:11;;;;;;;1.27;0.68;;;;;;;;;;4940772;29;20051;-90
2023/06/10 13:17:39;;;;;;;0.93;0.60;;;;;;;;;;4920897;29;20067;-91
2023/06/10 13:20:26;;;;;;;;;;;;;;;;;;;;;
2023/06/10 13:23:20;;;;;;;;;;;;;;;;;;;;;
2023/06/10 13:25:58;;;;;;;1.98;0.88;;;;;;;;;;5015729;28;20057;-90
2023/06/10 13:28:45;;;;;;;1.40;0.82;;;;;;;;;;5015781;28;20445;-91
2023/06/10 13:31:27;;;;;;;;;;;;;;;;;;;;;
2023/06/10 13:33:56;;;;;;;3.08;1.02;;;;;;;;;;5000623;28;20390;-92
2023/06/10 13:36:42;;;;;;;1.48;0.73;;;;;;;;;;5015552;28;20509;-91
2023/06/10 13:42:35;;;;;;;2.58;1.35;;;;;;;;;;4992806;28;20378;-91
2023/06/10 13:45:07;;;;;;;1.85;0.85;;;;;;;;;;5018341;28;20111;-91
2023/06/10 13:50:46;;;;;;;;;;;;;;;;;;;;;
2023/06/10 13:53:17;;;;;;;1.23;1.13;;;;;;;;;;5020944;28;20045;-93
2023/06/10 13:55:45;;;;;;;1.67;1.20;;;;;;;;;;5017436;28;20084;-90
2023/06/10 13:58:14;;;;;;;2.13;1.10;;;;;;;;;;5017040;28;20053;-92
2023/06/10 14:00:43;;;;;;;2.05;0.82;;;;;;;;;;5000799;28;20049;-91
2023/06/10 14:03:16;;;;;;;1.02;0.60;;;;;;;;;;5019189;28;20057;-92
2023/06/10 14:05:43;;;;;;;;;;;;;;;;;;5018260;28;20474;-91
2023/06/10 14:08:09;;;;;;;1.30;1.20;;;;;;;;;;5018012;28;20324;-91
2023/06/10 14:10:40;;;;;;;5.40;0.95;;;;;;;;;;5039184;28;20059;-92
2023/06/10 14:13:09;;;;;;;1.85;0.90;;;;;;;;;;5023996;28;20530;-91
2023/06/10 14:15:42;;;;;;;2.15;0.93;;;;;;;;;;5022240;28;20100;-91
2023/06/10 14:18:30;;;;;;;2.72;1.00;;;;;;;;;;5024181;28;20408;-93
2023/06/10 14:20:58;;;;;;;1.63;1.20;;;;;;;;;;5008160;28;20115;-91
2023/06/10 14:23:33;;;;;;;2.05;1.38;;;;;;;;;;5038044;28;20045;-93
2023/06/10 14:26:06;;;;;;;1.35;1.25;;;;;;;;;;5038758;28;20049;-92
2023/06/10 14:31:28;;;;;;;1.52;1.42;;;;;;;;;;5038821;28;20052;-93
2023/06/10 14:34:07;;;;;;;;;;;;;;;;;;;;;
2023/06/10 14:36:37;;;;;;;3.38;1.48;;;;;;;;;;5038621;28;20053;-91
2023/06/10 14:39:05;;;;;;;2.75;1.25;;;;;;;;;;5005770;28;20405;-92
2023/06/10 14:41:41;;;;;;;1.25;1.15;;;;;;;;;;5021473;28;20386;-93
2023/06/10 14:44:15;;;;;;;1.40;0.93;;;;;;;;;;5022769;28;20130;-93
2023/06/10 14:46:44;;;;;;;;;;;;;;;;;;5022886;28;20528;-91
2023/06/10 14:49:14;;;;;;;1.20;0.85;;;;;;;;;;5022265;28;19968;-92
2023/06/10 14:51:45;;;;;;;1.38;0.85;;;;;;;;;;5005572;28;20068;-91
2023/06/10 14:54:13;;;;;;;3.15;0.98;;;;;;;;;;5021146;28;20049;-91
2023/06/10 14:56:39;;;;;;;1.55;0.90;;;;;;;;;;5008140;28;20053;-90
2023/06/10 14:59:31;;;;;;;2.28;0.85;;;;;;;;;;5024940;28;20061;-91
2023/06/10 15:02:01;;;;;;;1.00;0.90;;;;;;;;;;5020913;28;20132;-88
2023/06/10 15:04:35;;;;;;;0.93;0.82;;;;;;;;;;5020521;28;20075;-89
2023/06/10 15:07:17;;;;;;;;;;;;;;;;;;;;;
2023/06/10 15:09:53;;;;;;;1.35;1.25;;;;;;;;;;5038101;28;20045;-90
2023/06/10 15:12:30;;;;;;;2.08;1.20;;;;;;;;;;5022480;28;20049;-89
2023/06/10 15:15:06;;;;;;;1.10;0.70;;;;;;;;;;5019575;28;20493;-92
2023/06/10 15:17:38;;;;;;;0.80;0.80;;;;;;;;;;5004189;28;20058;-92
2023/06/10 15:20:15;;;;;;;1.92;0.60;;;;;;;;;;5037204;28;20339;-90
2023/06/10 15:22:41;;;;;;;1.63;0.50;;;;;;;;;;5019344;28;20045;-91
2023/06/10 15:25:20;;;;;;;;;;;;;;;;;;;;;
2023/06/10 15:31:03;;;;;;;2.03;0.60;;;;;;;;;;5033564;28;20049;-91
2023/06/10 15:33:37;;;;;;;3.10;0.80;;;;;;;;;;5020047;28;20115;-90
2023/06/10 15:36:05;;;;;;;2.60;0.60;;;;;;;;;;5017196;28;20033;-90
2023/06/10 15:38:34;;;;;;;1.00;0.80;;;;;;;;;;5002091;28;20045;-92
2023/06/10 15:41:09;;;;;;;1.30;0.60;;;;;;;;;;5036330;28;20050;-90
2023/06/10 15:44:01;;;;;;;;;;;;;;;;;;;;;
2023/06/10 15:46:49;;;;;;;;;;;;;;;;;;;;;
2023/06/10 15:49:39;;;;;;;1.52;0.60;;;;;;;;;;5036391;28;20050;-92
2023/06/10 15:52:13;;;;;;;1.30;0.47;;;;;;;;;;5019883;28;20049;-91
2023/06/10 15:54:42;;;;;;;1.33;0.63;;;;;;;;;;5019146;28;20061;-91
2023/06/10 15:57:20;;;;;;;;;;;;;;;;;;;;;
2023/06/10 15:59:53;;;;;;;0.82;0.77;;;;;;;;;;5016282;28;20045;-90
2023/06/10 16:02:28;;;;;;;1.42;0.85;;;;;;;;;;5019024;28;20099;-89
2023/06/10 16:05:05;;;;;;;1.13;0.80;;;;;;;;;;5035514;28;20041;-90
2023/06/10 16:07:41;;;;;;;1.23;0.65;;;;;;;;;;4991961;28;20045;-90
2023/06/10 16:13:16;;;;;;;2.03;0.80;;;;;;;;;;5016114;28;20054;-92
2023/06/10 16:16:09;;;;;;;1.10;0.63;;;;;;;;;;4999830;28;20054;-93
2023/06/10 16:18:40;;;;;;;3.05;0.95;;;;;;;;;;5015111;28;20042;-90
2023/06/10 16:21:19;;;;;;;;;;;;;;;;;;;;;
2023/06/10 16:23:48;;;;;;;2.60;0.80;;;;;;;;;;5021663;28;20122;-91
2023/06/10 16:26:22;;;;;;;11.77;11.00;;;;;;;;;;5016185;28;20096;-90
2023/06/10 16:28:53;;;;;;;1.30;1.20;;;;;;;;;;5019608;28;20409;-91
2023/06/10 16:31:29;;;;;;;2.53;0.73;;;;;;;;;;5020443;28;20064;-91
2023/06/10 16:34:07;;;;;;;;;;;;;;;;;;;;;
2023/06/10 16:36:44;;;;;;;17.75;16.20;;;;;;;;;;5039758;28;20045;-89
2023/06/10 16:39:11;;;;;;;1.65;1.55;;;;;;;;;;5027502;28;20058;-90
2023/06/10 16:41:39;;;;;;;2.72;2.60;;;;;;;;;;5019005;28;20049;-89
2023/06/10 16:44:05;;;;;;;1.58;1.05;;;;;;;;;;5019426;28;20045;-90
2023/06/10 16:46:36;;;;;;;1.85;0.70;;;;;;;;;;5018316;28;20057;-89
2023/06/10 16:49:03;;;;;;;1.80;0.90;;;;;;;;;;5002743;28;20121;-91
2023/06/10 16:51:29;;;;;;;1.30;0.70;;;;;;;;;;5018101;28;20136;-89
2023/06/10 16:53:57;;;;;;;1.80;0.95;;;;;;;;;;5017782;28;20056;-89
2023/06/10 16:56:26;;;;;;;3.58;0.70;;;;;;;;;;5001643;28;20053;-90
2023/06/10 16:58:58;;;;;;;0.90;0.70;;;;;;;;;;5019362;28;20095;-90
2023/06/10 17:01:28;;;;;;;2.20;0.82;;;;;;;;;;5018637;28;20462;-90
2023/06/10 17:04:00;;;;;;;1.75;0.70;;;;;;;;;;5017958;28;20474;-89
2023/06/10 17:06:33;;;;;;;1.45;0.70;;;;;;;;;;5017586;28;20453;-90
2023/06/10 17:09:23;;;;;;;1.05;0.65;;;;;;;;;;5017969;28;20474;-91
2023/06/10 17:11:51;;;;;;;3.13;0.80;;;;;;;;;;5017521;28;20096;-89
2023/06/10 17:14:36;;;;;;;;;;;;;;;;;;;;;
2023/06/10 17:17:19;;;;;;;2.08;1.00;;;;;;;;;;5019760;28;20057;-90